Le Ray, New York
Current Conditions -  °F | °C
As of 10:58 PM on Friday 24 Oct 2014 (Local Time) from KGTB Reporting Station
Clear Clear  
Wind Chill: 44°   Ceiling: Unl
Heat Index: 49°   Visibility: 10mi
Dew Point: 46°   Wind: 12mph
Humidity: 90%   Direction: 240°WSW
Pressure: 29.86"   Gusts: NA
Location:  44.0981°N, 75.8331°W
Report Text: KGTB 250258Z AUTO 24010KT 10SM CLR 09/08 A2986 RMK AO2 SLP114 T00920077 58003
Loading
Personal Weather Stations






























Interactive Weather Map
Tropical Storm Tracking
New forecast layout! Learn more

10-Day Weather Forecast

Advertisements
Track Severe Weather on mobile